createdAt,value
2018-09-25T00:01:10.602Z,1033.64
2018-09-25T00:02:37.694Z,1033.63
2018-09-25T00:04:05.099Z,1033.66
2018-09-25T00:05:31.873Z,1033.71
2018-09-25T00:06:59.089Z,1033.75
2018-09-25T00:08:26.424Z,1033.77
2018-09-25T00:09:53.251Z,1033.78
2018-09-25T00:11:20.582Z,1033.79
2018-09-25T00:12:47.796Z,1033.80
2018-09-25T00:14:15.013Z,1033.83
2018-09-25T00:15:42.238Z,1033.84
2018-09-25T00:17:09.085Z,1033.85
2018-09-25T00:18:35.796Z,1033.85
2018-09-25T00:20:02.702Z,1033.89
2018-09-25T00:21:29.933Z,1033.89
2018-09-25T00:22:57.326Z,1033.87
2018-09-25T00:24:24.676Z,1033.86
2018-09-25T00:25:51.994Z,1033.91
2018-09-25T00:27:19.341Z,1033.92
2018-09-25T00:28:46.733Z,1033.93
2018-09-25T00:30:13.948Z,1033.93
2018-09-25T00:31:41.189Z,1033.94
2018-09-25T00:33:07.789Z,1033.93
2018-09-25T00:34:35.095Z,1033.92
2018-09-25T00:36:02.516Z,1033.97
2018-09-25T00:37:29.688Z,1034.00
2018-09-25T00:38:56.239Z,1034.03
2018-09-25T00:40:23.556Z,1034.03
2018-09-25T00:41:50.950Z,1034.06
2018-09-25T00:43:17.896Z,1034.07
2018-09-25T00:44:45.240Z,1034.07
2018-09-25T00:46:12.411Z,1034.08
2018-09-25T00:47:39.141Z,1034.10
2018-09-25T00:49:06.615Z,1034.11
2018-09-25T00:50:32.907Z,1034.11
2018-09-25T00:51:59.499Z,1034.12
2018-09-25T00:53:26.713Z,1034.11
2018-09-25T00:54:53.945Z,1034.09
2018-09-25T00:56:21.199Z,1034.09
2018-09-25T00:57:48.523Z,1034.07
2018-09-25T00:59:15.783Z,1034.08
2018-09-25T01:00:43.116Z,1034.10
2018-09-25T01:02:09.699Z,1034.13
2018-09-25T01:03:36.921Z,1034.14
2018-09-25T01:05:03.183Z,1034.14
2018-09-25T01:06:30.545Z,1034.14
2018-09-25T01:07:57.806Z,1034.16
2018-09-25T01:09:25.111Z,1034.16
2018-09-25T01:10:52.556Z,1034.18
2018-09-25T01:12:19.801Z,1034.17
2018-09-25T01:13:47.051Z,1034.19
2018-09-25T01:15:14.217Z,1034.16
2018-09-25T01:16:41.531Z,1034.19
2018-09-25T01:18:08.396Z,1034.21
2018-09-25T01:19:35.719Z,1034.23
2018-09-25T01:21:02.775Z,1034.23
2018-09-25T01:22:29.614Z,1034.23
2018-09-25T01:23:56.901Z,1034.28
2018-09-25T01:25:24.182Z,1034.29
2018-09-25T01:26:51.474Z,1034.30
2018-09-25T01:28:18.941Z,1034.32
2018-09-25T01:29:46.104Z,1034.34
2018-09-25T01:31:13.072Z,1034.36
2018-09-25T01:32:39.674Z,1034.36
2018-09-25T01:34:06.807Z,1034.38
2018-09-25T01:35:33.543Z,1034.39
2018-09-25T01:37:00.803Z,1034.42
2018-09-25T01:38:27.989Z,1034.42
2018-09-25T01:39:55.461Z,1034.45
2018-09-25T01:41:22.151Z,1034.46
2018-09-25T01:42:49.280Z,1034.48
2018-09-25T01:44:15.939Z,1034.51
2018-09-25T01:45:42.847Z,1034.51
2018-09-25T01:47:09.644Z,1034.52
2018-09-25T01:48:36.550Z,1034.55
2018-09-25T01:50:03.229Z,1034.59
2018-09-25T01:51:30.560Z,1034.61
2018-09-25T01:52:57.766Z,1034.62
2018-09-25T01:54:25.096Z,1034.63
2018-09-25T01:55:52.297Z,1034.64
2018-09-25T01:57:19.635Z,1034.66
2018-09-25T01:58:46.715Z,1034.67
2018-09-25T02:00:13.925Z,1034.68
2018-09-25T02:01:41.368Z,1034.70
2018-09-25T02:03:08.302Z,1034.72
2018-09-25T02:04:35.088Z,1034.75
2018-09-25T02:06:02.326Z,1034.79
2018-09-25T02:07:29.580Z,1034.82
2018-09-25T02:08:56.259Z,1034.85
2018-09-25T02:10:23.456Z,1034.89
2018-09-25T02:11:49.974Z,1034.93
2018-09-25T02:13:46.350Z,1034.95
2018-09-25T02:22:29.364Z,1035.01
2018-09-25T02:23:55.902Z,1035.04
2018-09-25T02:25:23.151Z,1035.03
2018-09-25T02:26:50.241Z,1035.06
2018-09-25T02:28:17.412Z,1035.08
2018-09-25T02:29:44.689Z,1035.08
2018-09-25T02:31:11.974Z,1035.07
2018-09-25T02:32:39.293Z,1035.08
2018-09-25T02:34:06.431Z,1035.07
2018-09-25T02:35:33.644Z,1035.09
2018-09-25T02:37:00.588Z,1035.10
2018-09-25T02:38:27.372Z,1035.11
2018-09-25T02:39:54.857Z,1035.11
2018-09-25T02:41:21.621Z,1035.12
2018-09-25T02:42:48.406Z,1035.12
2018-09-25T02:44:15.660Z,1035.18
2018-09-25T02:45:42.722Z,1035.19
2018-09-25T02:47:09.802Z,1035.19
2018-09-25T02:48:37.053Z,1035.20
2018-09-25T02:50:04.615Z,1035.24
2018-09-25T02:51:30.565Z,1035.25
2018-09-25T02:52:57.580Z,1035.27
2018-09-25T02:54:24.711Z,1035.27
2018-09-25T02:55:52.035Z,1035.29
2018-09-25T02:57:19.323Z,1035.29
2018-09-25T03:07:20.209Z,1035.32
2018-09-25T03:08:46.280Z,1035.32
2018-09-25T03:10:13.196Z,1035.37
2018-09-25T03:26:21.808Z,1035.48
2018-09-25T03:28:55.589Z,1035.50
2018-09-25T03:30:22.114Z,1035.53
2018-09-25T03:31:49.181Z,1035.54
2018-09-25T03:59:26.610Z,1035.80
2018-09-25T04:00:52.508Z,1035.83
2018-09-25T04:02:19.759Z,1035.84
2018-09-25T04:03:46.698Z,1035.86
2018-09-25T04:05:13.832Z,1035.88
2018-09-25T04:06:41.017Z,1035.91
2018-09-25T04:08:08.212Z,1035.95
2018-09-25T04:09:35.500Z,1035.99
2018-09-25T04:49:58.776Z,1036.34
2018-09-25T04:51:25.505Z,1036.35
2018-09-25T04:52:52.541Z,1036.40
2018-09-25T04:54:19.788Z,1036.44
2018-09-25T04:55:46.836Z,1036.47
2018-09-25T04:57:14.121Z,1036.49
2018-09-25T04:58:41.132Z,1036.51
2018-09-25T05:26:28.096Z,1036.82
2018-09-25T05:27:54.615Z,1036.84
2018-09-25T05:29:21.809Z,1036.85
2018-09-25T05:30:48.803Z,1036.89
2018-09-25T05:32:16.088Z,1036.93
2018-09-25T05:33:43.172Z,1036.94
2018-09-25T06:56:34.225Z,1037.64
2018-09-25T06:58:00.740Z,1037.66
2018-09-25T06:59:27.671Z,1037.70
2018-09-25T07:00:54.958Z,1037.71
2018-09-25T07:02:22.254Z,1037.71
2018-09-25T07:03:49.481Z,1037.72
2018-09-25T07:05:16.763Z,1037.71
2018-09-25T07:06:43.729Z,1037.70
2018-09-25T07:08:11.003Z,1037.72
2018-09-25T07:18:41.097Z,1037.81
2018-09-25T07:20:07.648Z,1037.84
2018-09-25T07:22:33.067Z,1037.86
2018-09-25T07:24:00.023Z,1037.88
2018-09-25T07:25:26.302Z,1037.89
2018-09-25T07:26:53.330Z,1037.91
2018-09-25T07:28:20.027Z,1037.94
2018-09-25T07:29:46.727Z,1037.96
2018-09-25T07:31:13.777Z,1038.01
2018-09-25T07:33:19.704Z,1038.06
2018-09-25T07:34:46.295Z,1038.08
2018-09-25T07:38:00.017Z,1038.11
2018-09-25T07:39:26.314Z,1038.11
2018-09-25T07:40:54.697Z,1038.10
2018-09-25T07:42:19.898Z,1038.10
2018-09-25T07:43:48.201Z,1038.10
2018-09-25T07:45:13.498Z,1038.14
2018-09-25T07:46:40.541Z,1038.16
2018-09-25T07:48:07.983Z,1038.16
2018-09-25T07:49:35.037Z,1038.18
2018-09-25T07:51:02.408Z,1038.21
2018-09-25T07:52:28.732Z,1038.22
2018-09-25T07:53:55.888Z,1038.26
2018-09-25T07:55:22.507Z,1038.28
2018-09-25T07:56:49.854Z,1038.31
2018-09-25T07:58:16.257Z,1038.28
2018-09-25T07:59:42.647Z,1038.30
2018-09-25T08:01:10.008Z,1038.33
2018-09-25T08:02:37.316Z,1038.33
2018-09-25T08:04:04.558Z,1038.34
2018-09-25T08:05:32.173Z,1038.35
2018-09-25T08:06:59.624Z,1038.39
2018-09-25T08:08:26.274Z,1038.39
2018-09-25T08:09:52.750Z,1038.43
2018-09-25T08:11:20.253Z,1038.48
2018-09-25T08:12:46.568Z,1038.49
2018-09-25T08:14:12.864Z,1038.51
2018-09-25T08:15:39.980Z,1038.51
2018-09-25T08:17:07.370Z,1038.55
2018-09-25T08:18:34.073Z,1038.54
2018-09-25T08:20:01.512Z,1038.59
2018-09-25T08:21:28.063Z,1038.60
2018-09-25T08:22:55.603Z,1038.59
2018-09-25T08:24:22.840Z,1038.60
2018-09-25T08:25:49.737Z,1038.64
2018-09-25T08:27:16.365Z,1038.64
2018-09-25T08:28:43.014Z,1038.64
2018-09-25T08:30:10.031Z,1038.65
2018-09-25T08:31:37.060Z,1038.66
2018-09-25T08:33:04.829Z,1038.70
2018-09-25T08:34:31.412Z,1038.69
2018-09-25T08:35:57.971Z,1038.73
2018-09-25T08:37:24.897Z,1038.73
2018-09-25T08:38:51.633Z,1038.74
2018-09-25T08:40:18.977Z,1038.77
2018-09-25T08:41:46.330Z,1038.74
2018-09-25T08:43:13.303Z,1038.76
2018-09-25T08:44:40.732Z,1038.81
2018-09-25T08:46:08.088Z,1038.79
2018-09-25T08:47:35.641Z,1038.77
2018-09-25T08:49:02.073Z,1038.81
2018-09-25T08:50:29.596Z,1038.80
2018-09-25T08:51:56.871Z,1038.85
2018-09-25T08:53:24.143Z,1038.88
2018-09-25T08:54:51.504Z,1038.91
2018-09-25T08:56:18.421Z,1038.96
2018-09-25T08:57:45.831Z,1038.98
2018-09-25T08:59:13.027Z,1038.97
2018-09-25T09:00:40.235Z,1039.00
2018-09-25T09:02:07.415Z,1038.98
2018-09-25T09:03:33.930Z,1039.01
2018-09-25T09:05:01.450Z,1039.00
2018-09-25T09:06:28.817Z,1038.99
2018-09-25T09:07:56.056Z,1038.98
2018-09-25T09:09:23.395Z,1038.98
2018-09-25T09:10:50.267Z,1039.01
2018-09-25T09:12:17.675Z,1039.00
2018-09-25T09:13:44.825Z,1039.02
2018-09-25T09:15:11.422Z,1039.03
2018-09-25T09:16:38.500Z,1039.08
2018-09-25T09:18:05.611Z,1039.04
2018-09-25T09:19:33.134Z,1039.04
2018-09-25T09:21:00.457Z,1039.10
2018-09-25T09:22:27.748Z,1039.11
2018-09-25T09:23:55.326Z,1039.13
2018-09-25T09:25:22.637Z,1039.12
2018-09-25T09:26:49.931Z,1039.11
2018-09-25T09:28:17.222Z,1039.10
2018-09-25T09:29:47.696Z,1039.12
2018-09-25T09:31:12.002Z,1039.11
2018-09-25T09:32:39.322Z,1039.15
2018-09-25T09:34:06.124Z,1039.11
2018-09-25T09:35:33.574Z,1039.10
2018-09-25T09:37:01.148Z,1039.12
2018-09-25T09:38:28.491Z,1039.12
2018-09-25T09:39:55.663Z,1039.11
2018-09-25T09:41:23.252Z,1039.16
2018-09-25T09:42:50.605Z,1039.12
2018-09-25T09:44:16.891Z,1039.12
2018-09-25T09:45:43.795Z,1039.18
2018-09-25T09:47:10.735Z,1039.21
2018-09-25T09:48:37.738Z,1039.22
2018-09-25T09:50:05.163Z,1039.24
2018-09-25T09:51:31.696Z,1039.23
2018-09-25T09:52:59.028Z,1039.21
2018-09-25T09:54:26.520Z,1039.20
2018-09-25T09:55:53.731Z,1039.22
2018-09-25T09:57:21.134Z,1039.26
2018-09-25T09:58:48.558Z,1039.25
2018-09-25T10:00:16.089Z,1039.26
2018-09-25T10:01:43.287Z,1039.27
2018-09-25T10:03:10.303Z,1039.32
2018-09-25T10:04:45.656Z,1039.33
2018-09-25T10:06:04.223Z,1039.35
2018-09-25T10:07:31.520Z,1039.35
2018-09-25T10:08:58.923Z,1039.39
2018-09-25T10:10:26.338Z,1039.45
2018-09-25T10:11:53.733Z,1039.41
2018-09-25T10:13:20.306Z,1039.44
2018-09-25T10:14:47.482Z,1039.42
2018-09-25T10:16:14.911Z,1039.47
2018-09-25T10:17:42.045Z,1039.46
2018-09-25T10:19:08.826Z,1039.44
2018-09-25T10:20:36.303Z,1039.44
2018-09-25T10:22:03.564Z,1039.45
2018-09-25T10:23:30.808Z,1039.45
2018-09-25T10:24:58.263Z,1039.49
2018-09-25T10:26:25.850Z,1039.42
2018-09-25T10:27:52.384Z,1039.48
2018-09-25T10:29:19.830Z,1039.43
2018-09-25T10:30:47.258Z,1039.41
2018-09-25T10:32:14.507Z,1039.40
2018-09-25T10:33:41.223Z,1039.39
2018-09-25T10:35:08.843Z,1039.42
2018-09-25T10:36:34.761Z,1039.44
2018-09-25T10:38:02.207Z,1039.45
2018-09-25T10:39:29.597Z,1039.43
2018-09-25T10:40:56.121Z,1039.44
2018-09-25T10:42:22.823Z,1039.39
2018-09-25T10:43:49.259Z,1039.46
2018-09-25T10:45:16.669Z,1039.38
2018-09-25T10:46:44.158Z,1039.41
2018-09-25T10:48:11.552Z,1039.42
2018-09-25T10:49:38.897Z,1039.44
2018-09-25T10:51:06.406Z,1039.49
2018-09-25T10:52:33.820Z,1039.48
2018-09-25T10:54:00.173Z,1039.47
2018-09-25T10:55:27.601Z,1039.46
2018-09-25T10:56:55.074Z,1039.51
2018-09-25T10:58:21.873Z,1039.55
2018-09-25T10:59:49.292Z,1039.56
2018-09-25T11:01:15.778Z,1039.57
2018-09-25T11:02:42.994Z,1039.56
2018-09-25T11:04:09.946Z,1039.55
2018-09-25T11:05:37.254Z,1039.55
2018-09-25T11:07:04.563Z,1039.55
2018-09-25T11:08:31.997Z,1039.51
2018-09-25T11:09:59.643Z,1039.54
2018-09-25T11:11:27.011Z,1039.54
2018-09-25T11:12:54.440Z,1039.53
2018-09-25T11:14:21.538Z,1039.59
2018-09-25T11:15:48.911Z,1039.54
2018-09-25T11:17:16.266Z,1039.53
2018-09-25T11:18:42.900Z,1039.57
2018-09-25T11:20:10.285Z,1039.58
2018-09-25T11:21:37.652Z,1039.54
2018-09-25T11:23:05.205Z,1039.55
2018-09-25T11:24:32.688Z,1039.51
2018-09-25T11:26:00.247Z,1039.47
2018-09-25T11:27:26.564Z,1039.53
2018-09-25T11:28:53.994Z,1039.52
2018-09-25T11:30:21.521Z,1039.53
2018-09-25T11:31:48.788Z,1039.54
2018-09-25T11:33:15.129Z,1039.57
2018-09-25T11:34:41.986Z,1039.55
2018-09-25T11:36:08.450Z,1039.52
2018-09-25T11:37:35.890Z,1039.49
2018-09-25T11:39:02.696Z,1039.49
2018-09-25T11:40:29.964Z,1039.50
2018-09-25T11:41:57.476Z,1039.49
2018-09-25T11:43:25.053Z,1039.50
2018-09-25T11:44:52.453Z,1039.47
2018-09-25T11:46:19.869Z,1039.44
2018-09-25T11:47:46.299Z,1039.42
2018-09-25T11:49:13.834Z,1039.42
2018-09-25T11:50:41.208Z,1039.44
2018-09-25T11:52:08.139Z,1039.43
2018-09-25T11:53:35.649Z,1039.44
2018-09-25T11:55:03.010Z,1039.45
2018-09-25T11:56:29.544Z,1039.39
2018-09-25T11:57:56.935Z,1039.38
2018-09-25T11:59:24.414Z,1039.34
2018-09-25T12:00:51.850Z,1039.29
2018-09-25T12:02:19.522Z,1039.31
2018-09-25T12:03:46.998Z,1039.30
2018-09-25T12:05:14.370Z,1039.28
2018-09-25T12:06:41.764Z,1039.28
2018-09-25T12:08:10.146Z,1039.26
2018-09-25T12:09:36.687Z,1039.26
2018-09-25T12:11:04.195Z,1039.25
2018-09-25T12:12:30.816Z,1039.26
2018-09-25T12:13:57.117Z,1039.23
2018-09-25T12:15:23.471Z,1039.20
2018-09-25T12:16:51.026Z,1039.20
2018-09-25T12:18:18.393Z,1039.09
2018-09-25T12:19:46.019Z,1039.09
2018-09-25T12:21:13.532Z,1039.08
2018-09-25T12:22:40.942Z,1039.15
2018-09-25T12:24:08.465Z,1039.18
2018-09-25T12:25:34.978Z,1039.22
2018-09-25T12:27:02.380Z,1039.24
2018-09-25T12:28:28.773Z,1039.27
2018-09-25T12:29:56.502Z,1039.20
2018-09-25T12:31:23.989Z,1039.18
2018-09-25T12:32:51.516Z,1039.17
2018-09-25T12:34:18.701Z,1039.17
2018-09-25T12:35:45.130Z,1039.26
2018-09-25T12:37:11.793Z,1039.25
2018-09-25T12:38:38.805Z,1039.27
2018-09-25T12:40:06.162Z,1039.29
2018-09-25T12:41:30.466Z,1039.33
2018-09-25T12:43:00.840Z,1039.33
2018-09-25T12:44:28.307Z,1039.34
2018-09-25T12:45:55.665Z,1039.32
2018-09-25T12:47:23.051Z,1039.27
2018-09-25T12:48:50.490Z,1039.22
2018-09-25T12:50:17.943Z,1039.22
2018-09-25T12:51:45.341Z,1039.21
2018-09-25T12:53:12.881Z,1039.21
2018-09-25T12:54:40.182Z,1039.24
2018-09-25T12:56:07.500Z,1039.21
2018-09-25T12:57:34.846Z,1039.20
2018-09-25T12:59:02.332Z,1039.18
2018-09-25T13:00:29.439Z,1039.23
2018-09-25T13:01:57.060Z,1039.19
2018-09-25T13:03:24.583Z,1039.18
2018-09-25T13:04:51.799Z,1039.18
2018-09-25T13:06:19.468Z,1039.20
2018-09-25T13:07:46.941Z,1039.19
2018-09-25T13:09:14.310Z,1039.20
2018-09-25T13:10:40.938Z,1039.15
2018-09-25T13:12:08.478Z,1039.10
2018-09-25T13:13:35.910Z,1039.12
2018-09-25T13:15:02.143Z,1039.08
2018-09-25T13:16:29.659Z,1039.03
2018-09-25T13:17:57.072Z,1038.99
2018-09-25T13:19:24.307Z,1039.02
2018-09-25T13:20:51.906Z,1039.05
2018-09-25T13:22:19.434Z,1039.04
2018-09-25T13:23:46.819Z,1039.08
2018-09-25T13:25:13.394Z,1039.10
2018-09-25T13:26:40.199Z,1039.09
2018-09-25T13:28:07.686Z,1039.05
2018-09-25T13:29:34.361Z,1039.04
2018-09-25T13:31:01.817Z,1039.09
2018-09-25T13:32:29.128Z,1039.12
2018-09-25T13:33:56.546Z,1039.12
2018-09-25T13:35:23.920Z,1039.12
2018-09-25T13:36:51.387Z,1039.15
2018-09-25T13:38:18.612Z,1039.20
2018-09-25T13:39:46.257Z,1039.21
2018-09-25T13:41:13.658Z,1039.14
2018-09-25T13:42:39.113Z,1039.16
2018-09-25T13:44:06.471Z,1039.16
2018-09-25T13:45:33.877Z,1039.12
2018-09-25T13:47:01.528Z,1039.12
2018-09-25T13:48:28.967Z,1039.17
2018-09-25T13:49:59.732Z,1039.16
2018-09-25T13:51:23.009Z,1039.17
2018-09-25T13:52:50.347Z,1039.20
2018-09-25T13:54:16.538Z,1039.18
2018-09-25T13:55:43.628Z,1039.15
2018-09-25T13:57:11.020Z,1039.15
2018-09-25T13:58:37.937Z,1039.11
2018-09-25T14:00:05.353Z,1039.11
2018-09-25T14:01:32.932Z,1039.10
2018-09-25T14:02:59.395Z,1039.05
2018-09-25T14:04:26.787Z,1039.06
2018-09-25T14:05:54.288Z,1039.08
2018-09-25T14:07:21.433Z,1039.05
2018-09-25T14:08:48.730Z,1039.04
2018-09-25T14:10:16.156Z,1039.04
2018-09-25T14:11:44.472Z,1039.06
2018-09-25T14:13:10.450Z,1038.98
2018-09-25T14:14:36.934Z,1039.00
2018-09-25T14:16:04.265Z,1039.03
2018-09-25T14:17:31.571Z,1039.08
2018-09-25T14:18:58.173Z,1039.10
2018-09-25T14:20:25.738Z,1039.16
2018-09-25T14:21:53.246Z,1039.15
2018-09-25T14:23:20.258Z,1039.15
2018-09-25T14:24:47.717Z,1039.17
2018-09-25T14:26:13.953Z,1039.18
2018-09-25T14:27:40.980Z,1039.20
2018-09-25T14:29:08.349Z,1039.18
2018-09-25T14:30:35.566Z,1039.18
2018-09-25T14:32:03.112Z,1039.15
2018-09-25T14:33:30.412Z,1039.21
2018-09-25T14:34:57.612Z,1039.21
2018-09-25T14:36:24.052Z,1039.24
2018-09-25T14:37:51.529Z,1039.28
2018-09-25T14:39:18.057Z,1039.35
2018-09-25T14:40:45.375Z,1039.38
2018-09-25T14:42:12.439Z,1039.38
2018-09-25T14:43:40.001Z,1039.35
2018-09-25T14:45:07.197Z,1039.32
2018-09-25T14:46:34.684Z,1039.32
2018-09-25T14:48:02.150Z,1039.31
2018-09-25T14:49:29.578Z,1039.30
2018-09-25T14:50:56.925Z,1039.30
2018-09-25T14:52:24.301Z,1039.26
2018-09-25T14:53:52.799Z,1039.26
2018-09-25T14:55:19.094Z,1039.23
2018-09-25T14:56:46.536Z,1039.22
2018-09-25T14:58:13.795Z,1039.20
2018-09-25T14:59:41.243Z,1039.22
2018-09-25T15:01:08.130Z,1039.24
2018-09-25T15:02:35.495Z,1039.19
2018-09-25T15:04:02.992Z,1039.12
2018-09-25T15:05:30.553Z,1039.15
2018-09-25T15:06:57.721Z,1039.21
2018-09-25T15:08:25.157Z,1039.21
2018-09-25T15:09:52.757Z,1039.22
2018-09-25T15:11:19.967Z,1039.19
2018-09-25T15:12:47.408Z,1039.17
2018-09-25T15:14:14.969Z,1039.14
2018-09-25T15:15:42.271Z,1039.13
2018-09-25T15:17:08.822Z,1039.12
2018-09-25T15:18:36.361Z,1039.09
2018-09-25T15:20:03.871Z,1039.06
2018-09-25T15:21:30.362Z,1039.05
2018-09-25T15:22:57.548Z,1039.07
2018-09-25T15:24:24.910Z,1039.13
2018-09-25T15:25:52.395Z,1039.14
2018-09-25T15:27:19.767Z,1039.17
2018-09-25T15:28:46.955Z,1039.15
2018-09-25T15:30:14.265Z,1039.17
2018-09-25T15:31:41.641Z,1039.17
2018-09-25T15:33:08.289Z,1039.16
2018-09-25T15:34:35.057Z,1039.17
2018-09-25T15:36:02.001Z,1039.17
2018-09-25T15:37:28.713Z,1039.22
2018-09-25T15:38:55.892Z,1039.23
2018-09-25T15:40:23.345Z,1039.27
2018-09-25T15:41:50.515Z,1039.24
2018-09-25T15:43:17.974Z,1039.21
2018-09-25T15:44:45.316Z,1039.22
2018-09-25T15:46:12.248Z,1039.20
2018-09-25T15:47:39.634Z,1039.20
2018-09-25T15:49:06.833Z,1039.19
2018-09-25T15:50:34.288Z,1039.19
2018-09-25T15:52:01.506Z,1039.20
2018-09-25T15:53:28.941Z,1039.24
2018-09-25T15:54:56.441Z,1039.24
2018-09-25T15:56:23.743Z,1039.29
2018-09-25T15:57:51.357Z,1039.29
2018-09-25T15:59:18.665Z,1039.33
2018-09-25T16:00:45.350Z,1039.34
2018-09-25T16:02:12.764Z,1039.35
2018-09-25T16:03:39.564Z,1039.35
2018-09-25T16:05:06.344Z,1039.35
2018-09-25T16:06:32.728Z,1039.34
2018-09-25T16:08:00.078Z,1039.37
2018-09-25T16:09:27.473Z,1039.37
2018-09-25T16:10:54.243Z,1039.38
2018-09-25T16:12:21.694Z,1039.38
2018-09-25T16:13:48.934Z,1039.41
2018-09-25T16:15:16.515Z,1039.42
2018-09-25T16:16:43.799Z,1039.40
2018-09-25T16:18:11.205Z,1039.42
2018-09-25T16:19:38.474Z,1039.43
2018-09-25T16:21:04.833Z,1039.39
2018-09-25T16:22:32.325Z,1039.37
2018-09-25T16:23:59.634Z,1039.34
2018-09-25T16:25:27.191Z,1039.31
2018-09-25T16:26:53.800Z,1039.32
2018-09-25T16:28:21.335Z,1039.34
2018-09-25T16:29:48.799Z,1039.37
2018-09-25T16:31:16.147Z,1039.35
2018-09-25T16:32:43.586Z,1039.35
2018-09-25T16:34:10.830Z,1039.36
2018-09-25T16:35:37.158Z,1039.35
2018-09-25T16:37:04.382Z,1039.36
2018-09-25T16:38:30.538Z,1039.37
2018-09-25T16:39:57.232Z,1039.37
2018-09-25T16:41:24.387Z,1039.40
2018-09-25T16:42:51.698Z,1039.42
2018-09-25T16:44:19.153Z,1039.46
2018-09-25T16:45:45.865Z,1039.52
2018-09-25T16:47:13.355Z,1039.52
2018-09-25T16:48:40.682Z,1039.51
2018-09-25T16:50:07.583Z,1039.51
2018-09-25T16:51:34.864Z,1039.50
2018-09-25T16:53:02.121Z,1039.50
2018-09-25T16:54:29.627Z,1039.50
2018-09-25T16:55:55.856Z,1039.49
2018-09-25T16:57:22.505Z,1039.46
2018-09-25T16:58:48.869Z,1039.40
2018-09-25T17:00:16.323Z,1039.36
2018-09-25T17:01:43.411Z,1039.33
2018-09-25T17:03:10.200Z,1039.35
2018-09-25T17:04:37.479Z,1039.32
2018-09-25T17:06:04.861Z,1039.30
2018-09-25T17:07:32.084Z,1039.26
2018-09-25T17:08:59.461Z,1039.27
2018-09-25T17:10:26.905Z,1039.26
2018-09-25T17:11:54.223Z,1039.25
2018-09-25T17:13:21.151Z,1039.23
2018-09-25T17:14:48.041Z,1039.21
2018-09-25T17:16:15.528Z,1039.20
2018-09-25T17:17:42.977Z,1039.19
2018-09-25T17:19:10.399Z,1039.18
2018-09-25T17:20:37.742Z,1039.17
2018-09-25T17:22:04.260Z,1039.16
2018-09-25T17:23:31.492Z,1039.14
2018-09-25T17:24:58.964Z,1039.12
2018-09-25T17:26:26.410Z,1039.10
2018-09-25T17:27:52.878Z,1039.10
2018-09-25T17:29:20.212Z,1039.10
2018-09-25T17:30:47.104Z,1039.07
2018-09-25T17:32:14.430Z,1039.09
2018-09-25T17:33:41.636Z,1039.09
2018-09-25T17:35:08.723Z,1039.15
2018-09-25T17:36:36.850Z,1039.16
2018-09-25T17:38:03.577Z,1039.13
2018-09-25T17:39:30.898Z,1039.14
2018-09-25T17:40:57.464Z,1039.16
2018-09-25T17:42:24.948Z,1039.15
2018-09-25T17:43:51.588Z,1039.19
2018-09-25T17:45:18.809Z,1039.25
2018-09-25T17:46:46.362Z,1039.23
2018-09-25T17:48:13.423Z,1039.20
2018-09-25T17:49:40.375Z,1039.21
2018-09-25T17:51:07.469Z,1039.19
2018-09-25T17:52:33.867Z,1039.18
2018-09-25T17:54:01.164Z,1039.19
2018-09-25T17:55:28.585Z,1039.22
2018-09-25T17:56:55.827Z,1039.32
2018-09-25T17:58:23.186Z,1039.33
2018-09-25T17:59:50.493Z,1039.32
2018-09-25T18:01:18.014Z,1039.30
2018-09-25T18:02:45.135Z,1039.27
2018-09-25T18:04:11.364Z,1039.24
2018-09-25T18:05:38.300Z,1039.23
2018-09-25T18:07:05.558Z,1039.22
2018-09-25T18:08:33.040Z,1039.22
2018-09-25T18:10:00.265Z,1039.23
2018-09-25T18:11:27.505Z,1039.22
2018-09-25T18:12:54.966Z,1039.22
2018-09-25T18:14:22.315Z,1039.24
2018-09-25T18:15:48.749Z,1039.22
2018-09-25T18:17:16.325Z,1039.22
2018-09-25T18:18:43.315Z,1039.21
2018-09-25T18:20:10.584Z,1039.26
2018-09-25T18:21:38.069Z,1039.28
2018-09-25T18:23:03.996Z,1039.29
2018-09-25T18:24:31.517Z,1039.27
2018-09-25T18:25:58.792Z,1039.28
2018-09-25T18:27:26.027Z,1039.32
2018-09-25T18:28:52.609Z,1039.32
2018-09-25T18:30:18.779Z,1039.33
2018-09-25T18:31:46.450Z,1039.32
2018-09-25T18:33:13.444Z,1039.30
2018-09-25T18:34:40.742Z,1039.28
2018-09-25T18:36:07.619Z,1039.29
2018-09-25T18:37:35.022Z,1039.26
2018-09-25T18:39:02.548Z,1039.25
2018-09-25T18:40:29.744Z,1039.27
2018-09-25T18:41:56.895Z,1039.27
2018-09-25T18:43:24.246Z,1039.36
2018-09-25T18:44:51.799Z,1039.45
2018-09-25T18:46:18.605Z,1039.48
2018-09-25T18:47:45.301Z,1039.46
2018-09-25T18:49:11.970Z,1039.43
2018-09-25T18:50:39.175Z,1039.42
2018-09-25T18:52:06.336Z,1039.40
2018-09-25T18:53:32.952Z,1039.38
2018-09-25T18:55:00.099Z,1039.38
2018-09-25T18:56:26.572Z,1039.38
2018-09-25T18:57:53.449Z,1039.35
2018-09-25T18:59:20.040Z,1039.36
2018-09-25T19:00:47.460Z,1039.34
2018-09-25T19:02:14.290Z,1039.33
2018-09-25T19:03:41.532Z,1039.30
2018-09-25T19:05:08.670Z,1039.32
2018-09-25T19:06:36.198Z,1039.33
2018-09-25T19:08:02.935Z,1039.31
2018-09-25T19:09:30.296Z,1039.31
2018-09-25T19:10:56.962Z,1039.33
2018-09-25T19:12:24.284Z,1039.36
2018-09-25T19:13:51.027Z,1039.36
2018-09-25T19:15:18.476Z,1039.36
2018-09-25T19:16:45.776Z,1039.36
2018-09-25T19:18:13.144Z,1039.35
2018-09-25T19:19:40.525Z,1039.33
2018-09-25T19:21:08.062Z,1039.31
2018-09-25T19:22:35.242Z,1039.31
2018-09-25T19:24:02.831Z,1039.32
2018-09-25T19:25:30.014Z,1039.29
2018-09-25T19:26:57.438Z,1039.27
2018-09-25T19:28:25.000Z,1039.27
2018-09-25T19:29:52.511Z,1039.31
2018-09-25T19:31:19.039Z,1039.32
2018-09-25T19:32:45.520Z,1039.32
2018-09-25T19:34:12.065Z,1039.31
2018-09-25T19:35:39.429Z,1039.30
2018-09-25T19:37:05.941Z,1039.30
2018-09-25T19:38:32.847Z,1039.30
2018-09-25T19:40:00.261Z,1039.32
2018-09-25T19:41:27.477Z,1039.34
2018-09-25T19:42:54.955Z,1039.32
2018-09-25T19:44:21.597Z,1039.28
2018-09-25T19:45:48.848Z,1039.28
2018-09-25T19:47:15.478Z,1039.27
2018-09-25T19:48:42.810Z,1039.26
2018-09-25T19:50:10.122Z,1039.27
2018-09-25T19:51:37.396Z,1039.29
2018-09-25T19:53:04.644Z,1039.31
2018-09-25T19:54:31.246Z,1039.33
2018-09-25T19:55:58.461Z,1039.32
2018-09-25T19:57:24.785Z,1039.33
2018-09-25T19:58:52.176Z,1039.34
2018-09-25T20:00:19.920Z,1039.35
2018-09-25T20:01:46.810Z,1039.33
2018-09-25T20:03:14.076Z,1039.34
2018-09-25T20:04:41.263Z,1039.35
2018-09-25T20:06:08.201Z,1039.35
2018-09-25T20:07:35.457Z,1039.36
2018-09-25T20:09:02.840Z,1039.35
2018-09-25T20:10:30.315Z,1039.36
2018-09-25T20:11:57.573Z,1039.40
2018-09-25T20:13:24.028Z,1039.44
2018-09-25T20:14:54.148Z,1039.47
2018-09-25T20:16:18.487Z,1039.44
2018-09-25T20:17:45.848Z,1039.43
2018-09-25T20:19:12.149Z,1039.39
2018-09-25T20:20:39.543Z,1039.34
2018-09-25T20:22:06.885Z,1039.32
2018-09-25T20:23:35.064Z,1039.31
2018-09-25T20:25:01.342Z,1039.32
2018-09-25T20:26:28.591Z,1039.30
2018-09-25T20:27:56.075Z,1039.30
2018-09-25T20:29:23.409Z,1039.32
2018-09-25T20:30:49.677Z,1039.34
2018-09-25T20:32:16.770Z,1039.33
2018-09-25T20:33:42.806Z,1039.35
2018-09-25T20:35:09.278Z,1039.35
2018-09-25T20:36:36.272Z,1039.33
2018-09-25T20:38:03.520Z,1039.35
2018-09-25T20:39:30.824Z,1039.38
2018-09-25T20:40:57.963Z,1039.43
2018-09-25T20:42:25.279Z,1039.45
2018-09-25T20:43:51.624Z,1039.46
2018-09-25T20:45:18.781Z,1039.44
2018-09-25T20:46:45.871Z,1039.43
2018-09-25T20:48:13.280Z,1039.40
2018-09-25T20:49:40.594Z,1039.40
2018-09-25T20:51:07.717Z,1039.40
2018-09-25T20:52:35.130Z,1039.35
2018-09-25T20:54:02.458Z,1039.29
2018-09-25T20:55:28.896Z,1039.27
2018-09-25T20:56:56.245Z,1039.22
2018-09-25T20:58:22.501Z,1039.19
2018-09-25T20:59:49.830Z,1039.17
2018-09-25T21:01:16.970Z,1039.15
2018-09-25T21:02:44.366Z,1039.12
2018-09-25T21:04:11.798Z,1039.08
2018-09-25T21:05:39.169Z,1039.10
2018-09-25T21:07:06.316Z,1039.16
2018-09-25T21:08:33.615Z,1039.20
2018-09-25T21:10:00.874Z,1039.21
2018-09-25T21:11:28.023Z,1039.21